Big Glory — H9IF — position and weather

sailwx.info

Track history (hours):
 
Tides and Currents Weather Stations Pressure Air Temp Water Temp Dewpoint Dewpoint Depression Visibility Wind Speed Wind Dir Waves Ship Positions

Big Glory

Last reported at 2014-Jul-30 07:07 UTC. Time now 2014-Aug-27 09:05 UTC.
Position N 22°09' E 120°05'.
Warning: this ship's position is 28 days out of date.

Length 190 m; draft 6.5 m.

Type: Cargo ship. MMSI: 354285000.

Date/timePositionNaut miles runAvg speedWind from/ knotsBaromVisibWave heightAir tempDewpointWater temp
2014-Jul-30 07:07N 22°09' E 120°05'813.9
2014-Jul-30 06:33N 22°17' E 120°03'1413.9
2014-Jul-30 05:33N 22°30' E 119°59'1413.6
2014-Jul-30 04:33N 22°43' E 119°54'1413.1
2014-Jul-30 03:31N 22°56' E 119°53'  
2014-Jul-24 13:21N 22°57' E 119°53'1012.5
2014-Jul-24 12:33N 22°47' E 119°55'1212.3
2014-Jul-24 11:33N 22°35' E 119°58'1212.1
2014-Jul-24 10:33N 22°24' E 120°01'1010.2
2014-Jul-24 09:33N 22°14' E 120°04'  
Track history (hours):
 
Tides and Currents Weather Stations Pressure Air Temp Water Temp Dewpoint Dewpoint Depression Visibility Wind Speed Wind Dir Waves Ship Positions

Big Glory

Last reported at 2014-Jul-30 07:07 UTC. Time now 2014-Aug-27 09:05 UTC.
Position N 22°09' E 120°05'.
Warning: this ship's position is 28 days out of date.

Length 190 m; draft 6.5 m.

Type: Cargo ship. MMSI: 354285000.

Date/timePositionNaut miles runAvg speedWind from/ knotsBaromVisibWave heightAir tempDewpointWater temp
2014-Jul-30 07:07N 22°09' E 120°05'813.9
2014-Jul-30 06:33N 22°17' E 120°03'1413.9
2014-Jul-30 05:33N 22°30' E 119°59'1413.6
2014-Jul-30 04:33N 22°43' E 119°54'1413.1
2014-Jul-30 03:31N 22°56' E 119°53'  
2014-Jul-24 13:21N 22°57' E 119°53'1012.5
2014-Jul-24 12:33N 22°47' E 119°55'1212.3
2014-Jul-24 11:33N 22°35' E 119°58'1212.1
2014-Jul-24 10:33N 22°24' E 120°01'1010.2
2014-Jul-24 09:33N 22°14' E 120°04'  

Dump ship's entire track history